createdAt,value
2019-03-06T00:01:42.023Z,69.01
2019-03-06T00:04:13.095Z,68.87
2019-03-06T00:06:43.602Z,68.81
2019-03-06T00:09:15.067Z,68.60
2019-03-06T00:11:46.087Z,68.32
2019-03-06T00:14:16.590Z,68.37
2019-03-06T00:16:47.658Z,68.09
2019-03-06T00:19:18.767Z,68.08
2019-03-06T00:21:49.267Z,68.38
2019-03-06T00:24:20.592Z,68.71
2019-03-06T00:26:51.745Z,68.39
2019-03-06T00:29:23.258Z,69.07
2019-03-06T00:31:54.429Z,68.45
2019-03-06T00:34:25.679Z,68.77
2019-03-06T00:36:56.906Z,68.51
2019-03-06T00:39:29.605Z,68.63
2019-03-06T00:42:00.879Z,68.50
2019-03-06T00:44:32.150Z,68.67
2019-03-06T00:47:03.320Z,68.80
2019-03-06T00:49:36.179Z,68.74
2019-03-06T00:52:09.533Z,69.12
2019-03-06T00:54:40.716Z,68.66
2019-03-06T00:57:14.193Z,68.74
2019-03-06T00:59:45.413Z,69.01
2019-03-06T01:02:16.670Z,69.14
2019-03-06T01:04:48.970Z,69.10
2019-03-06T01:07:20.218Z,69.55
2019-03-06T01:09:51.356Z,69.19
2019-03-06T01:12:22.632Z,69.66
2019-03-06T01:14:53.773Z,69.31
2019-03-06T01:17:26.070Z,69.55
2019-03-06T01:19:57.367Z,69.54
2019-03-06T01:22:28.655Z,69.91
2019-03-06T01:24:59.913Z,69.95
2019-03-06T01:27:31.183Z,69.85
2019-03-06T01:30:02.397Z,69.55
2019-03-06T01:32:35.492Z,69.70
2019-03-06T01:35:18.210Z,69.61
2019-03-06T01:38:07.235Z,69.61
2019-03-06T01:40:46.380Z,70.10
2019-03-06T01:43:25.307Z,70.45
2019-03-06T01:45:57.113Z,70.58
2019-03-06T01:48:28.943Z,70.89
2019-03-06T01:51:01.162Z,70.99
2019-03-06T01:53:32.333Z,70.92
2019-03-06T01:56:05.093Z,70.90
2019-03-06T01:58:36.367Z,71.22
2019-03-06T02:01:07.623Z,71.48
2019-03-06T02:03:39.147Z,71.49
2019-03-06T02:06:10.368Z,71.61
2019-03-06T02:08:41.649Z,71.95
2019-03-06T02:11:13.092Z,71.76
2019-03-06T02:13:44.373Z,71.85
2019-03-06T02:16:15.553Z,72.41
2019-03-06T02:18:46.979Z,72.11
2019-03-06T02:21:18.198Z,72.16
2019-03-06T02:23:49.302Z,72.15
2019-03-06T02:26:20.552Z,72.31
2019-03-06T02:28:52.453Z,72.66
2019-03-06T02:31:23.773Z,72.92
2019-03-06T02:33:55.008Z,72.93
2019-03-06T02:36:26.512Z,72.79
2019-03-06T02:38:57.770Z,73.12
2019-03-06T02:41:28.988Z,73.55
2019-03-06T02:44:01.421Z,72.96
2019-03-06T02:46:32.993Z,73.32
2019-03-06T02:49:04.310Z,73.54
2019-03-06T02:51:35.661Z,73.45
2019-03-06T02:54:08.017Z,73.39
2019-03-06T02:56:39.635Z,73.37
2019-03-06T02:59:12.484Z,73.81
2019-03-06T03:01:54.816Z,73.85
2019-03-06T03:04:27.522Z,73.61
2019-03-06T03:07:02.769Z,73.85
2019-03-06T03:09:34.076Z,74.11
2019-03-06T03:12:05.346Z,74.16
2019-03-06T03:14:36.704Z,74.13
2019-03-06T03:17:07.680Z,74.18
2019-03-06T03:19:38.283Z,74.42
2019-03-06T03:22:09.853Z,74.39
2019-03-06T03:24:41.173Z,74.50
2019-03-06T03:27:12.460Z,74.66
2019-03-06T03:29:43.659Z,74.80
2019-03-06T03:32:14.889Z,74.92
2019-03-06T03:34:46.167Z,74.82
2019-03-06T03:37:19.082Z,75.34
2019-03-06T03:39:50.180Z,74.62
2019-03-06T03:42:21.477Z,74.93
2019-03-06T03:44:52.712Z,74.78
2019-03-06T03:47:24.013Z,75.10
2019-03-06T03:49:55.252Z,75.19
2019-03-06T03:52:26.443Z,74.85
2019-03-06T03:54:57.874Z,75.18
2019-03-06T03:57:29.203Z,74.98
2019-03-06T04:00:00.490Z,75.08
2019-03-06T04:02:32.417Z,74.78
2019-03-06T04:05:06.381Z,75.00
2019-03-06T04:07:40.625Z,74.96
2019-03-06T04:10:15.895Z,74.96
2019-03-06T04:12:47.265Z,75.03
2019-03-06T04:15:19.003Z,75.20
2019-03-06T04:17:50.306Z,75.08
2019-03-06T04:20:21.563Z,75.09
2019-03-06T04:22:53.275Z,75.34
2019-03-06T04:25:24.456Z,75.25
2019-03-06T04:27:55.700Z,75.73
2019-03-06T04:30:27.943Z,75.10
2019-03-06T04:32:59.192Z,75.13
2019-03-06T04:35:30.354Z,75.16
2019-03-06T04:38:01.915Z,75.24
2019-03-06T04:40:33.127Z,75.25
2019-03-06T04:43:04.244Z,74.83
2019-03-06T04:45:35.452Z,73.84
2019-03-06T04:48:06.589Z,72.79
2019-03-06T04:50:37.786Z,73.14
2019-03-06T04:53:09.041Z,72.22
2019-03-06T04:55:41.263Z,72.23
2019-03-06T04:58:12.517Z,72.43
2019-03-06T05:00:43.877Z,72.73
2019-03-06T05:03:15.125Z,72.80
2019-03-06T05:05:46.247Z,71.33
2019-03-06T05:08:17.417Z,69.18
2019-03-06T05:10:48.836Z,67.56
2019-03-06T05:13:21.112Z,65.40
2019-03-06T05:15:53.367Z,64.08
2019-03-06T05:18:32.138Z,62.99
2019-03-06T05:21:03.462Z,60.34
2019-03-06T05:23:34.561Z,58.43
2019-03-06T05:26:05.713Z,58.26
2019-03-06T05:28:36.936Z,56.48
2019-03-06T05:31:08.178Z,54.37
2019-03-06T05:36:15.937Z,52.27
2019-03-06T05:39:05.332Z,52.46
2019-03-06T05:41:38.124Z,52.06
2019-03-06T05:44:09.341Z,51.04
2019-03-06T05:46:40.542Z,48.94
2019-03-06T05:49:13.902Z,47.76
2019-03-06T05:51:44.964Z,47.04
2019-03-06T05:54:16.291Z,47.29
2019-03-06T05:56:48.475Z,44.75
2019-03-06T05:59:19.888Z,44.83
2019-03-06T06:01:51.025Z,44.18
2019-03-06T06:04:23.515Z,43.97
2019-03-06T06:06:54.731Z,43.37
2019-03-06T06:09:26.054Z,42.82
2019-03-06T06:11:58.895Z,43.91
2019-03-06T06:14:30.164Z,43.34
2019-03-06T06:17:02.236Z,43.12
2019-03-06T06:19:34.619Z,43.47
2019-03-06T06:22:10.507Z,42.19
2019-03-06T06:24:43.152Z,42.91
2019-03-06T06:27:14.544Z,42.77
2019-03-06T06:29:47.578Z,42.24
2019-03-06T06:32:18.713Z,40.31
2019-03-06T06:34:50.009Z,38.78
2019-03-06T06:37:21.132Z,38.26
2019-03-06T06:39:52.785Z,39.10
2019-03-06T06:42:24.352Z,39.54
2019-03-06T06:44:55.542Z,38.02
2019-03-06T06:47:26.741Z,39.66
2019-03-06T06:49:58.065Z,38.23
2019-03-06T06:52:35.002Z,37.32
2019-03-06T06:55:29.868Z,36.49
2019-03-06T06:58:04.406Z,37.55
2019-03-06T07:00:52.220Z,36.00
2019-03-06T07:03:43.195Z,36.38
2019-03-06T07:06:15.968Z,36.38
2019-03-06T07:08:51.435Z,36.40
2019-03-06T07:11:24.199Z,35.54
2019-03-06T07:14:06.217Z,36.19
2019-03-06T07:54:02.293Z,47.01
2019-03-06T07:56:35.420Z,48.37
2019-03-06T07:59:07.484Z,47.80
2019-03-06T08:01:41.907Z,51.63
2019-03-06T08:04:14.685Z,52.29
2019-03-06T08:06:47.750Z,52.69
2019-03-06T08:09:22.812Z,52.29
2019-03-06T08:12:56.760Z,52.57
2019-03-06T08:15:36.198Z,53.21
2019-03-06T08:18:08.895Z,54.86
2019-03-06T08:20:47.740Z,54.73
2019-03-06T08:23:26.562Z,54.76
2019-03-06T08:25:57.688Z,54.01
2019-03-06T08:28:28.810Z,54.55
2019-03-06T08:31:01.512Z,55.73
2019-03-06T08:33:32.613Z,55.47
2019-03-06T08:36:03.701Z,55.40
2019-03-06T08:38:34.888Z,55.37
2019-03-06T08:41:06.694Z,56.79
2019-03-06T08:43:40.948Z,55.85
2019-03-06T08:46:18.911Z,55.53
2019-03-06T08:48:58.993Z,56.04
2019-03-06T08:51:31.949Z,55.77
2019-03-06T08:54:04.699Z,55.83
2019-03-06T08:56:46.696Z,55.11
2019-03-06T08:59:28.518Z,55.33
2019-03-06T09:02:01.370Z,55.54
2019-03-06T09:04:34.698Z,56.81
2019-03-06T09:07:13.314Z,56.39
2019-03-06T09:09:46.126Z,57.14
2019-03-06T09:12:18.865Z,57.62
2019-03-06T09:15:07.821Z,57.97
2019-03-06T09:17:40.646Z,57.99
2019-03-06T09:23:09.161Z,56.66
2019-03-06T09:25:41.926Z,56.06
2019-03-06T09:28:16.125Z,54.82
2019-03-06T09:30:54.878Z,54.73
2019-03-06T09:33:27.650Z,54.41
2019-03-06T09:36:00.373Z,55.39
2019-03-06T09:38:50.200Z,54.98
2019-03-06T09:41:23.241Z,55.68
2019-03-06T09:43:55.979Z,55.20
2019-03-06T09:46:31.553Z,54.57
2019-03-06T09:49:11.058Z,55.12
2019-03-06T09:51:38.850Z,56.05
2019-03-06T09:54:29.702Z,56.21
2019-03-06T09:57:18.425Z,57.39
2019-03-06T09:59:54.169Z,57.73
2019-03-06T10:02:30.173Z,57.35
2019-03-06T10:05:09.100Z,57.00
2019-03-06T10:07:41.777Z,56.81
2019-03-06T10:10:32.986Z,57.67
2019-03-06T10:13:04.998Z,57.17
2019-03-06T10:15:37.807Z,55.96
2019-03-06T10:18:10.595Z,56.13
2019-03-06T10:20:42.438Z,56.58
2019-03-06T10:23:16.267Z,57.24
2019-03-06T10:25:47.420Z,57.27
2019-03-06T10:28:27.507Z,58.30
2019-03-06T10:31:01.870Z,58.28
2019-03-06T10:33:25.609Z,58.46
2019-03-06T10:35:56.869Z,58.15
2019-03-06T10:38:28.232Z,58.80
2019-03-06T10:40:59.528Z,58.44
2019-03-06T10:43:30.567Z,58.21
2019-03-06T10:46:01.914Z,57.76
2019-03-06T10:48:33.086Z,58.23
2019-03-06T10:51:04.349Z,57.45
2019-03-06T10:53:41.266Z,57.72
2019-03-06T10:56:11.157Z,58.07
2019-03-06T10:58:42.303Z,58.02
2019-03-06T11:01:13.775Z,59.01
2019-03-06T11:03:53.582Z,58.88
2019-03-06T11:06:25.703Z,59.30
2019-03-06T11:08:56.960Z,58.70
2019-03-06T11:11:31.244Z,59.13
2019-03-06T11:14:06.106Z,58.89
2019-03-06T11:16:40.340Z,58.75
2019-03-06T11:19:08.760Z,58.80
2019-03-06T11:21:40.070Z,58.61
2019-03-06T11:24:11.277Z,58.72
2019-03-06T11:26:43.821Z,58.73
2019-03-06T11:29:15.370Z,59.88
2019-03-06T11:31:46.723Z,60.95
2019-03-06T11:34:18.967Z,60.67
2019-03-06T11:36:50.366Z,60.91
2019-03-06T11:39:24.263Z,61.83
2019-03-06T11:41:55.602Z,62.15
2019-03-06T11:44:28.296Z,61.20
2019-03-06T11:47:02.901Z,61.67
2019-03-06T11:49:36.873Z,61.74
2019-03-06T11:52:08.077Z,61.82
2019-03-06T11:54:39.251Z,61.50
2019-03-06T11:57:10.395Z,61.04
2019-03-06T11:59:41.531Z,61.22
2019-03-06T12:02:12.776Z,62.23
2019-03-06T12:06:52.274Z,62.46
2019-03-06T12:09:27.404Z,61.92
2019-03-06T12:12:00.083Z,62.66
2019-03-06T12:14:32.503Z,62.86
2019-03-06T12:17:03.673Z,62.59
2019-03-06T12:19:35.124Z,63.00
2019-03-06T12:22:06.511Z,63.10
2019-03-06T12:24:37.702Z,63.63
2019-03-06T12:27:09.922Z,63.83
2019-03-06T12:29:41.833Z,64.41
2019-03-06T12:32:15.438Z,64.44
2019-03-06T12:34:46.557Z,65.59
2019-03-06T12:37:18.488Z,66.58
2019-03-06T12:39:49.887Z,66.28
2019-03-06T12:42:21.029Z,66.47
2019-03-06T12:44:52.682Z,67.53
2019-03-06T12:47:24.753Z,68.09
2019-03-06T12:49:55.969Z,68.48
2019-03-06T12:52:27.123Z,68.92
2019-03-06T12:54:59.115Z,69.76
2019-03-06T12:57:32.713Z,70.90
2019-03-06T13:00:08.388Z,71.09
2019-03-06T13:02:39.575Z,71.08
2019-03-06T13:05:11.064Z,71.59
2019-03-06T13:07:43.422Z,72.15
2019-03-06T13:10:16.639Z,72.82
2019-03-06T13:12:49.050Z,74.01
2019-03-06T13:15:25.065Z,74.24
2019-03-06T13:17:58.954Z,75.38
2019-03-06T13:20:30.129Z,77.36
2019-03-06T13:23:01.263Z,78.18
2019-03-06T13:25:32.356Z,78.07
2019-03-06T13:28:03.559Z,78.01
2019-03-06T13:30:34.756Z,77.99
2019-03-06T13:33:13.861Z,77.53
2019-03-06T13:35:45.150Z,77.63
2019-03-06T13:38:16.530Z,77.41
2019-03-06T13:40:48.126Z,76.47
2019-03-06T13:43:19.489Z,75.86
2019-03-06T13:45:51.739Z,75.89
2019-03-06T13:48:22.983Z,74.91
2019-03-06T13:50:54.617Z,75.26
2019-03-06T13:53:28.936Z,74.01
2019-03-06T13:56:01.670Z,74.36
2019-03-06T13:58:32.981Z,74.20
2019-03-06T14:01:05.440Z,74.21
2019-03-06T14:03:36.619Z,74.70
2019-03-06T14:06:10.142Z,73.94
2019-03-06T14:08:41.278Z,73.85
2019-03-06T14:11:12.423Z,74.03
2019-03-06T14:13:43.675Z,74.34
2019-03-06T14:16:14.895Z,73.75
2019-03-06T14:18:46.048Z,73.95
2019-03-06T14:21:17.291Z,73.96
2019-03-06T14:23:48.435Z,74.05
2019-03-06T14:26:19.737Z,73.71
2019-03-06T14:28:51.713Z,74.04
2019-03-06T14:31:25.163Z,73.97
2019-03-06T14:33:56.385Z,74.06
2019-03-06T14:36:27.647Z,73.83
2019-03-06T14:38:59.160Z,73.80
2019-03-06T14:41:31.820Z,73.71
2019-03-06T14:44:04.272Z,74.04
2019-03-06T14:46:35.459Z,74.18
2019-03-06T14:49:06.609Z,74.93
2019-03-06T14:51:38.451Z,75.94
2019-03-06T14:54:09.928Z,77.52
2019-03-06T14:56:43.893Z,78.42
2019-03-06T14:59:15.188Z,78.40
2019-03-06T15:01:46.499Z,77.58
2019-03-06T15:04:17.826Z,77.60
2019-03-06T15:06:49.206Z,77.76
2019-03-06T15:09:24.600Z,78.06
2019-03-06T15:11:57.351Z,78.00
2019-03-06T15:14:35.862Z,78.26
2019-03-06T15:17:02.798Z,78.28
2019-03-06T15:19:35.535Z,77.94
2019-03-06T15:22:08.455Z,78.16
2019-03-06T15:24:42.016Z,78.00
2019-03-06T15:27:13.229Z,78.31
2019-03-06T15:29:46.372Z,77.82
2019-03-06T15:32:17.570Z,78.18
2019-03-06T15:34:48.680Z,78.38
2019-03-06T15:37:19.891Z,78.23
2019-03-06T15:39:51.073Z,78.13
2019-03-06T15:42:22.242Z,78.80
2019-03-06T15:44:53.378Z,79.17
2019-03-06T15:47:33.235Z,79.25
2019-03-06T15:49:57.453Z,79.55
2019-03-06T15:52:28.749Z,79.59
2019-03-06T15:54:59.178Z,79.63
2019-03-06T15:57:31.308Z,79.82
2019-03-06T16:00:02.472Z,79.86
2019-03-06T16:02:36.142Z,79.80
2019-03-06T16:05:10.777Z,79.88
2019-03-06T16:07:41.990Z,80.17
2019-03-06T16:10:15.110Z,80.00
2019-03-06T16:12:47.558Z,79.73
2019-03-06T16:15:18.718Z,80.04
2019-03-06T16:17:50.028Z,80.15
2019-03-06T16:20:22.289Z,80.35
2019-03-06T16:22:53.403Z,80.59
2019-03-06T16:25:36.106Z,80.69
2019-03-06T16:27:59.435Z,80.80
2019-03-06T16:30:32.116Z,80.89
2019-03-06T16:33:03.352Z,81.00
2019-03-06T16:35:34.505Z,80.97
2019-03-06T16:38:06.566Z,81.10
2019-03-06T16:40:37.771Z,81.15
2019-03-06T16:43:09.022Z,81.29
2019-03-06T16:45:41.719Z,81.13
2019-03-06T16:48:12.918Z,80.66
2019-03-06T16:50:44.770Z,80.68
2019-03-06T16:53:16.042Z,81.31
2019-03-06T16:55:48.783Z,81.31
2019-03-06T16:58:19.968Z,80.61
2019-03-06T17:00:51.166Z,80.73
2019-03-06T17:03:22.703Z,80.72
2019-03-06T17:05:54.691Z,80.36
2019-03-06T17:08:28.116Z,80.28
2019-03-06T17:11:00.455Z,80.44
2019-03-06T17:13:33.275Z,80.21
2019-03-06T17:16:04.412Z,77.88
2019-03-06T17:18:35.620Z,78.59
2019-03-06T17:21:06.761Z,77.67
2019-03-06T17:23:38.006Z,78.21
2019-03-06T17:26:09.265Z,78.43
2019-03-06T17:28:40.488Z,77.92
2019-03-06T17:31:12.303Z,78.45
2019-03-06T17:33:43.528Z,78.44
2019-03-06T17:36:14.792Z,78.47
2019-03-06T17:38:46.360Z,78.31
2019-03-06T17:41:18.709Z,78.38
2019-03-06T17:43:50.020Z,78.42
2019-03-06T17:46:23.465Z,78.63
2019-03-06T17:48:54.729Z,78.16
2019-03-06T17:51:26.288Z,78.23
2019-03-06T17:53:57.521Z,78.31
2019-03-06T17:56:29.923Z,78.08
2019-03-06T17:59:04.294Z,78.10
2019-03-06T18:01:35.601Z,78.26
2019-03-06T18:04:08.809Z,77.97
2019-03-06T18:06:40.133Z,77.85
2019-03-06T18:09:11.444Z,77.79
2019-03-06T18:11:43.721Z,77.31
2019-03-06T18:14:14.888Z,77.21
2019-03-06T18:16:45.959Z,76.89
2019-03-06T18:19:16.352Z,76.83
2019-03-06T18:21:47.584Z,76.42
2019-03-06T18:24:18.805Z,76.47
2019-03-06T18:26:49.929Z,76.49
2019-03-06T18:29:21.452Z,75.87
2019-03-06T18:31:54.146Z,76.16
2019-03-06T18:34:25.313Z,76.30
2019-03-06T18:36:56.429Z,76.31
2019-03-06T18:39:28.745Z,75.65
2019-03-06T18:42:00.299Z,72.99
2019-03-06T18:44:31.557Z,72.95
2019-03-06T18:47:02.707Z,72.24
2019-03-06T18:49:33.887Z,71.27
2019-03-06T18:52:05.047Z,71.02
2019-03-06T18:54:36.518Z,70.00
2019-03-06T18:57:07.634Z,69.75
2019-03-06T18:59:38.795Z,69.60
2019-03-06T19:02:09.961Z,68.55
2019-03-06T19:04:41.321Z,69.31
2019-03-06T19:07:12.554Z,69.48
2019-03-06T19:09:43.968Z,69.40
2019-03-06T19:12:15.060Z,69.83
2019-03-06T19:14:46.255Z,69.10
2019-03-06T19:17:17.486Z,68.68
2019-03-06T19:19:48.977Z,68.68
2019-03-06T19:22:20.135Z,69.18
2019-03-06T19:26:27.362Z,69.07
2019-03-06T19:28:58.751Z,68.98
2019-03-06T19:31:30.005Z,68.69
2019-03-06T19:34:01.121Z,67.97
2019-03-06T19:36:32.324Z,67.55
2019-03-06T19:39:04.062Z,68.13
2019-03-06T19:41:36.992Z,68.16
2019-03-06T19:44:08.058Z,67.73
2019-03-06T19:46:39.211Z,67.32
2019-03-06T19:49:10.265Z,66.79
2019-03-06T19:51:40.831Z,66.02
2019-03-06T19:54:11.887Z,65.96
2019-03-06T19:56:43.184Z,66.51
2019-03-06T19:59:14.302Z,66.38
2019-03-06T20:01:45.503Z,66.49
2019-03-06T20:04:16.606Z,66.37
2019-03-06T20:06:47.774Z,66.61
2019-03-06T20:09:26.882Z,65.92
2019-03-06T20:11:58.122Z,66.43
2019-03-06T20:14:29.157Z,65.98
2019-03-06T20:16:59.769Z,65.63
2019-03-06T20:19:30.801Z,65.80
2019-03-06T20:22:02.201Z,65.51
2019-03-06T20:24:33.439Z,65.30
2019-03-06T20:27:04.684Z,64.83
2019-03-06T20:29:35.763Z,65.20
2019-03-06T20:32:09.232Z,65.57
2019-03-06T20:34:41.808Z,65.74
2019-03-06T20:37:13.076Z,66.00
2019-03-06T20:39:44.299Z,66.36
2019-03-06T20:42:16.449Z,64.37
2019-03-06T20:44:48.509Z,65.02
2019-03-06T20:47:19.705Z,63.65
2019-03-06T20:49:50.852Z,62.82
2019-03-06T20:52:21.989Z,63.09
2019-03-06T20:54:53.142Z,61.19
2019-03-06T20:57:24.274Z,60.87
2019-03-06T20:59:56.667Z,60.75
2019-03-06T21:02:27.904Z,60.71
2019-03-06T21:05:01.984Z,60.41
2019-03-06T21:07:32.389Z,60.33
2019-03-06T21:10:04.472Z,59.77
2019-03-06T21:12:35.652Z,60.36
2019-03-06T21:15:09.807Z,60.38
2019-03-06T21:17:40.982Z,59.84
2019-03-06T21:20:20.385Z,59.73
2019-03-06T21:22:51.593Z,59.81
2019-03-06T21:25:23.685Z,58.87
2019-03-06T21:27:55.135Z,59.08
2019-03-06T21:30:36.605Z,59.41
2019-03-06T21:33:07.865Z,59.34
2019-03-06T21:35:40.009Z,59.29
2019-03-06T21:38:11.200Z,59.31
2019-03-06T21:40:42.395Z,59.30
2019-03-06T21:43:13.569Z,59.48
2019-03-06T21:45:44.834Z,59.59
2019-03-06T21:48:16.171Z,59.79
2019-03-06T21:50:47.415Z,59.66
2019-03-06T21:53:18.567Z,59.89
2019-03-06T21:55:49.737Z,59.90
2019-03-06T21:58:20.927Z,59.97
2019-03-06T22:00:52.069Z,60.08
2019-03-06T22:03:24.775Z,60.20
2019-03-06T22:05:56.070Z,60.33
2019-03-06T22:08:28.103Z,59.08
2019-03-06T22:10:59.239Z,59.31
2019-03-06T22:13:30.445Z,59.15
2019-03-06T22:16:01.626Z,59.15
2019-03-06T22:18:32.792Z,59.95
2019-03-06T22:21:05.054Z,59.56
2019-03-06T22:23:36.807Z,58.67
2019-03-06T22:26:07.938Z,59.22
2019-03-06T22:28:38.405Z,58.94
2019-03-06T22:31:10.910Z,59.14
2019-03-06T22:33:42.181Z,58.88
2019-03-06T22:36:13.383Z,59.61
2019-03-06T22:38:44.669Z,60.08
2019-03-06T22:41:16.190Z,60.74
2019-03-06T22:43:48.607Z,60.81
2019-03-06T22:46:20.114Z,61.46
2019-03-06T22:48:52.408Z,62.04
2019-03-06T22:51:25.433Z,62.64
2019-03-06T22:53:56.576Z,62.83
2019-03-06T22:56:27.718Z,63.22
2019-03-06T22:58:59.010Z,63.37
2019-03-06T23:01:31.697Z,63.77
2019-03-06T23:04:03.328Z,64.37
2019-03-06T23:06:34.704Z,65.78
2019-03-06T23:09:06.744Z,67.10
2019-03-06T23:11:39.431Z,67.74
2019-03-06T23:14:11.616Z,68.43
2019-03-06T23:16:43.872Z,68.83
2019-03-06T23:19:16.850Z,68.95
2019-03-06T23:21:48.851Z,68.76
2019-03-06T23:24:19.972Z,68.25
2019-03-06T23:26:52.728Z,68.33
2019-03-06T23:29:24.331Z,68.84
2019-03-06T23:31:55.529Z,68.54
2019-03-06T23:34:27.261Z,68.42
2019-03-06T23:36:58.371Z,69.08
2019-03-06T23:39:29.532Z,68.93
2019-03-06T23:42:00.933Z,69.25
2019-03-06T23:44:32.214Z,69.50
2019-03-06T23:47:05.749Z,69.68
2019-03-06T23:49:37.185Z,69.68
2019-03-06T23:52:11.948Z,69.67
2019-03-06T23:54:43.258Z,69.78
2019-03-06T23:57:14.424Z,70.03
2019-03-06T23:59:46.699Z,70.14
